Time,TemperatureF,DewpointF,PressureIn,WindDirection,WindDirectionDegrees,WindSpeedMPH,WindSpeedGustMPH,Humidity,HourlyPrecipIn,Conditions,Clouds,dailyrainin,SolarRadiationWatts/m^2,SoftwareType,DateUTC
2013-01-01 00:00:00,44.5,29.8,29.99,North,32767,-999.0,0.0,56,0.00,,,0.00,0,Wunderground v.1.15,2013-01-01 05:00:00,
2013-01-01 00:05:00,44.5,29.8,29.99,North,32767,-999.0,0.0,56,0.00,,,0.00,0,Wunderground v.1.15,2013-01-01 05:05:00,
2013-01-01 00:10:00,44.6,29.0,29.99,North,32767,-999.0,0.0,54,0.00,,,0.00,0,Wunderground v.1.15,2013-01-01 05:10:00,
2013-01-01 00:15:00,44.8,29.2,29.99,North,32767,-999.0,0.0,54,0.00,,,0.00,0,Wunderground v.1.15,2013-01-01 05:15:00,
2013-01-01 00:20:00,44.8,29.6,29.99,North,32767,-999.0,0.0,55,0.00,,,0.00,0,Wunderground v.1.15,2013-01-01 05:20:00,
2013-01-01 00:25:00,44.8,28.7,29.99,North,32767,-999.0,0.0,53,0.00,,,0.00,0,Wunderground v.1.15,2013-01-01 05:25:00,
2013-01-01 00:30:00,44.9,29.2,29.99,North,32767,-999.0,0.0,54,0.00,,,0.00,0,Wunderground v.1.15,2013-01-01 05:30:00,
2013-01-01 00:40:00,45.2,29.1,29.98,North,32767,-999.0,0.0,53,0.00,,,0.00,0,Wunderground v.1.15,2013-01-01 05:40:00,
2013-01-01 00:45:00,45.4,28.8,29.98,North,32767,-999.0,0.0,52,0.00,,,0.00,0,Wunderground v.1.15,2013-01-01 05:45:00,
2013-01-01 00:55:00,45.5,29.8,29.98,North,32767,-999.0,0.0,54,0.00,,,0.00,0,Wunderground v.1.15,2013-01-01 05:55:00,
2013-01-01 01:00:00,45.4,29.3,29.98,North,32767,-999.0,0.0,53,0.00,,,0.00,0,Wunderground v.1.15,2013-01-01 06:00:00,
2013-01-01 01:05:00,45.4,29.3,29.98,North,32767,-999.0,0.0,53,0.00,,,0.00,0,Wunderground v.1.15,2013-01-01 06:05:00,
2013-01-01 01:10:00,45.4,30.2,29.98,North,32767,-999.0,0.0,55,0.00,,,0.00,0,Wunderground v.1.15,2013-01-01 06:10:00,
2013-01-01 01:20:00,45.2,29.5,29.97,North,32767,-999.0,0.0,54,0.00,,,0.00,0,Wunderground v.1.15,2013-01-01 06:20:00,
2013-01-01 01:25:00,45.4,29.3,29.97,North,32767,-999.0,0.0,53,0.00,,,0.00,0,Wunderground v.1.15,2013-01-01 06:25:00,
2013-01-01 01:35:00,45.7,30.0,29.96,North,32767,-999.0,0.0,54,0.00,,,0.00,0,Wunderground v.1.15,2013-01-01 06:35:00,
2013-01-01 01:40:00,45.7,30.4,29.96,North,32767,-999.0,0.0,55,0.00,,,0.00,0,Wunderground v.1.15,2013-01-01 06:40:00,
2013-01-01 01:50:00,45.5,30.3,29.95,North,32767,-999.0,0.0,55,0.00,,,0.00,0,Wunderground v.1.15,2013-01-01 06:50:00,
2013-01-01 01:55:00,45.4,30.2,29.95,North,32767,-999.0,0.0,55,0.00,,,0.00,0,Wunderground v.1.15,2013-01-01 06:55:00,
2013-01-01 02:00:00,45.4,30.2,29.95,North,32767,-999.0,0.0,55,0.00,,,0.00,0,Wunderground v.1.15,2013-01-01 07:00:00,
2013-01-01 02:10:00,45.4,30.6,29.95,North,32767,-999.0,0.0,56,0.00,,,0.00,0,Wunderground v.1.15,2013-01-01 07:10:00,
2013-01-01 02:15:00,45.4,31.0,29.95,North,32767,-999.0,0.0,57,0.00,,,0.00,0,Wunderground v.1.15,2013-01-01 07:15:00,
2013-01-01 02:20:00,45.2,30.9,29.95,North,32767,-999.0,0.0,57,0.00,,,0.00,0,Wunderground v.1.15,2013-01-01 07:20:00,
2013-01-01 02:25:00,45.2,30.4,29.95,North,32767,-999.0,0.0,56,0.00,,,0.00,0,Wunderground v.1.15,2013-01-01 07:25:00,
2013-01-01 02:30:00,45.2,30.4,29.95,North,32767,-999.0,0.0,56,0.00,,,0.00,0,Wunderground v.1.15,2013-01-01 07:30:00,
2013-01-01 02:40:00,45.4,30.2,29.95,North,32767,-999.0,0.0,55,0.00,,,0.00,0,Wunderground v.1.15,2013-01-01 07:40:00,
2013-01-01 02:45:00,45.4,30.2,29.95,North,32767,-999.0,0.0,55,0.00,,,0.00,0,Wunderground v.1.15,2013-01-01 07:45:00,
2013-01-01 02:55:00,45.5,29.8,29.94,North,32767,-999.0,0.0,54,0.00,,,0.00,0,Wunderground v.1.15,2013-01-01 07:55:00,
2013-01-01 03:00:00,45.5,30.7,29.94,North,32767,-999.0,0.0,56,0.00,,,0.00,0,Wunderground v.1.15,2013-01-01 08:00:00,
2013-01-01 03:10:00,45.5,30.7,29.94,North,32767,-999.0,0.0,56,0.00,,,0.00,0,Wunderground v.1.15,2013-01-01 08:10:00,
2013-01-01 03:20:00,45.5,30.7,29.94,North,32767,-999.0,0.0,56,0.00,,,0.00,0,Wunderground v.1.15,2013-01-01 08:20:00,
2013-01-01 03:25:00,45.5,30.7,29.94,North,32767,-999.0,0.0,56,0.00,,,0.00,0,Wunderground v.1.15,2013-01-01 08:25:00,
2013-01-01 03:30:00,45.5,30.3,29.94,North,32767,-999.0,0.0,55,0.00,,,0.00,0,Wunderground v.1.15,2013-01-01 08:30:00,
2013-01-01 03:40:00,45.5,30.7,29.95,North,32767,-999.0,0.0,56,0.00,,,0.00,0,Wunderground v.1.15,2013-01-01 08:40:00,
2013-01-01 03:50:00,45.7,30.9,29.94,North,32767,-999.0,0.0,56,0.00,,,0.00,0,Wunderground v.1.15,2013-01-01 08:50:00,
2013-01-01 03:55:00,45.7,31.3,29.94,North,32767,-999.0,0.0,57,0.00,,,0.00,0,Wunderground v.1.15,2013-01-01 08:55:00,
2013-01-01 04:05:00,45.5,30.7,29.94,North,32767,-999.0,0.0,56,0.00,,,0.00,0,Wunderground v.1.15,2013-01-01 09:05:00,
2013-01-01 04:10:00,45.5,30.3,29.94,North,32767,-999.0,0.0,55,0.00,,,0.00,0,Wunderground v.1.15,2013-01-01 09:10:00,
2013-01-01 04:15:00,45.5,30.7,29.94,North,32767,-999.0,0.0,56,0.00,,,0.00,0,Wunderground v.1.15,2013-01-01 09:15:00,
2013-01-01 04:25:00,45.4,31.5,29.94,North,32767,-999.0,0.0,58,0.00,,,0.00,0,Wunderground v.1.15,2013-01-01 09:25:00,
2013-01-01 04:35:00,45.1,31.2,29.94,North,32767,-999.0,0.0,58,0.00,,,0.00,0,Wunderground v.1.15,2013-01-01 09:35:00,
2013-01-01 04:45:00,44.9,30.6,29.94,North,32767,-999.0,0.0,57,0.00,,,0.00,0,Wunderground v.1.15,2013-01-01 09:45:00,
2013-01-01 04:50:00,44.9,30.6,29.94,North,32767,-999.0,0.0,57,0.00,,,0.00,0,Wunderground v.1.15,2013-01-01 09:50:00,
2013-01-01 05:00:00,44.8,30.9,29.94,North,32767,-999.0,0.0,58,0.00,,,0.00,0,Wunderground v.1.15,2013-01-01 10:00:00,
2013-01-01 05:05:00,44.8,30.0,29.94,North,32767,-999.0,0.0,56,0.00,,,0.00,0,Wunderground v.1.15,2013-01-01 10:05:00,
2013-01-01 05:10:00,44.9,31.0,29.94,North,32767,-999.0,0.0,58,0.00,,,0.00,0,Wunderground v.1.15,2013-01-01 10:10:00,
2013-01-01 05:15:00,44.9,31.0,29.94,North,32767,-999.0,0.0,58,0.00,,,0.00,0,Wunderground v.1.15,2013-01-01 10:15:00,
2013-01-01 05:25:00,44.8,31.3,29.92,North,32767,-999.0,0.0,59,0.00,,,0.00,0,Wunderground v.1.15,2013-01-01 10:25:00,
2013-01-01 05:30:00,44.8,31.8,29.92,North,32767,-999.0,0.0,60,0.00,,,0.00,0,Wunderground v.1.15,2013-01-01 10:30:00,
2013-01-01 05:35:00,44.8,30.9,29.93,North,32767,-999.0,0.0,58,0.00,,,0.00,0,Wunderground v.1.15,2013-01-01 10:35:00,
2013-01-01 05:45:00,44.8,30.9,29.93,North,32767,-999.0,0.0,58,0.00,,,0.00,0,Wunderground v.1.15,2013-01-01 10:45:00,
2013-01-01 05:50:00,44.9,31.0,29.95,North,32767,-999.0,0.0,58,0.00,,,0.00,0,Wunderground v.1.15,2013-01-01 10:50:00,
2013-01-01 06:00:00,45.1,32.0,29.95,North,32767,-999.0,0.0,60,0.00,,,0.00,0,Wunderground v.1.15,2013-01-01 11:00:00,
2013-01-01 06:05:00,45.1,32.4,29.95,North,32767,-999.0,0.0,61,0.00,,,0.00,0,Wunderground v.1.15,2013-01-01 11:05:00,
2013-01-01 06:15:00,45.2,32.1,29.95,North,32767,-999.0,0.0,60,0.00,,,0.00,0,Wunderground v.1.15,2013-01-01 11:15:00,
2013-01-01 06:20:00,45.2,32.1,29.94,North,32767,-999.0,0.0,60,0.00,,,0.00,0,Wunderground v.1.15,2013-01-01 11:20:00,
2013-01-01 06:25:00,45.2,32.5,29.94,North,32767,-999.0,0.0,61,0.00,,,0.00,0,Wunderground v.1.15,2013-01-01 11:25:00,
2013-01-01 06:35:00,45.2,31.7,29.95,North,32767,-999.0,0.0,59,0.00,,,0.00,0,Wunderground v.1.15,2013-01-01 11:35:00,
2013-01-01 06:40:00,45.4,33.9,29.95,North,32767,-999.0,0.0,64,0.00,,,0.00,0,Wunderground v.1.15,2013-01-01 11:40:00,
2013-01-01 06:45:00,45.2,32.9,29.95,North,32767,-999.0,0.0,62,0.00,,,0.00,0,Wunderground v.1.15,2013-01-01 11:45:00,
2013-01-01 06:50:00,45.1,33.6,29.95,North,32767,-999.0,0.0,64,0.00,,,0.00,0,Wunderground v.1.15,2013-01-01 11:50:00,
2013-01-01 07:00:00,44.8,34.5,29.95,North,32767,-999.0,0.0,67,0.00,,,0.00,0,Wunderground v.1.15,2013-01-01 12:00:00,
2013-01-01 07:05:00,44.6,34.7,29.96,North,32767,-999.0,0.0,68,0.00,,,0.00,0,Wunderground v.1.15,2013-01-01 12:05:00,
2013-01-01 07:15:00,44.3,35.5,29.96,North,32767,-999.0,0.0,71,0.00,,,0.00,0,Wunderground v.1.15,2013-01-01 12:15:00,
2013-01-01 07:20:00,44.1,35.3,29.97,North,32767,-999.0,0.0,71,0.00,,,0.00,0,Wunderground v.1.15,2013-01-01 12:20:00,
2013-01-01 07:30:00,43.8,35.7,29.97,North,32767,-999.0,0.0,73,0.00,,,0.00,0,Wunderground v.1.15,2013-01-01 12:30:00,
2013-01-01 07:35:00,43.6,35.5,29.96,North,32767,-999.0,0.0,73,0.00,,,0.00,0,Wunderground v.1.15,2013-01-01 12:35:00,
2013-01-01 07:45:00,43.5,35.8,29.96,North,32767,-999.0,0.0,74,0.00,,,0.00,0,Wunderground v.1.15,2013-01-01 12:45:00,
2013-01-01 07:50:00,43.5,36.4,29.98,North,32767,-999.0,0.0,76,0.00,,,0.00,0,Wunderground v.1.15,2013-01-01 12:50:00,
2013-01-01 08:00:00,43.2,36.1,29.98,North,32767,-999.0,0.0,76,0.00,,,0.00,0,Wunderground v.1.15,2013-01-01 13:00:00,
2013-01-01 08:05:00,43.1,36.7,29.96,North,32767,-999.0,0.0,78,0.00,,,0.00,0,Wunderground v.1.15,2013-01-01 13:05:00,
2013-01-01 08:15:00,42.9,37.5,29.96,North,32767,-999.0,0.0,81,0.00,,,0.00,0,Wunderground v.1.15,2013-01-01 13:15:00,
2013-01-01 08:20:00,42.8,36.7,29.97,North,32767,-999.0,0.0,79,0.00,,,0.00,0,Wunderground v.1.15,2013-01-01 13:20:00,
2013-01-01 08:30:00,42.9,36.5,29.97,North,32767,-999.0,0.0,78,0.00,,,0.00,0,Wunderground v.1.15,2013-01-01 13:30:00,
2013-01-01 08:40:00,43.3,36.6,29.98,North,32767,-999.0,0.0,77,0.00,,,0.00,7,Wunderground v.1.15,2013-01-01 13:40:00,
2013-01-01 08:45:00,43.5,36.8,29.98,North,32767,-999.0,0.0,77,0.00,,,0.00,7,Wunderground v.1.15,2013-01-01 13:45:00,
2013-01-01 08:50:00,43.6,36.9,29.97,North,32767,-999.0,0.0,77,0.00,,,0.00,9,Wunderground v.1.15,2013-01-01 13:50:00,
2013-01-01 08:55:00,43.8,38.0,29.97,North,32767,-999.0,0.0,80,0.00,,,0.00,9,Wunderground v.1.15,2013-01-01 13:55:00,
2013-01-01 09:05:00,43.6,38.2,29.97,North,32767,-999.0,0.0,81,0.00,,,0.00,11,Wunderground v.1.15,2013-01-01 14:05:00,
2013-01-01 09:15:00,43.6,39.4,29.97,North,32767,-999.0,0.0,85,0.00,,,0.00,12,Wunderground v.1.15,2013-01-01 14:15:00,
2013-01-01 09:20:00,43.3,39.1,29.98,North,32767,-999.0,0.0,85,0.00,,,0.00,14,Wunderground v.1.15,2013-01-01 14:20:00,
2013-01-01 09:30:00,43.1,39.2,29.98,North,32767,-999.0,0.0,86,0.00,,,0.01,21,Wunderground v.1.15,2013-01-01 14:30:00,
2013-01-01 09:35:00,43.1,39.5,29.98,North,32767,-999.0,0.0,87,0.06,,,0.02,18,Wunderground v.1.15,2013-01-01 14:35:00,
2013-01-01 09:45:00,43.1,39.8,29.98,North,32767,-999.0,0.0,88,0.07,,,0.03,19,Wunderground v.1.15,2013-01-01 14:45:00,
2013-01-01 09:55:00,43.2,40.2,29.98,North,32767,-999.0,0.0,89,0.08,,,0.04,28,Wunderground v.1.15,2013-01-01 14:55:00,
2013-01-01 10:00:00,43.2,40.2,29.98,North,32767,-999.0,0.0,89,0.05,,,0.04,25,Wunderground v.1.15,2013-01-01 15:00:00,
2013-01-01 10:10:00,43.1,40.4,29.98,North,32767,-999.0,0.0,90,0.04,,,0.05,23,Wunderground v.1.15,2013-01-01 15:10:00,
2013-01-01 10:15:00,43.2,40.5,29.98,North,32767,-999.0,0.0,90,0.04,,,0.05,23,Wunderground v.1.15,2013-01-01 15:15:00,
2013-01-01 10:20:00,43.2,40.5,29.97,North,32767,-999.0,0.0,90,0.00,,,0.05,25,Wunderground v.1.15,2013-01-01 15:20:00,
2013-01-01 10:30:00,43.5,41.0,29.97,North,32767,-999.0,0.0,91,0.00,,,0.05,23,Wunderground v.1.15,2013-01-01 15:30:00,
2013-01-01 10:35:00,43.5,41.0,29.97,North,32767,-999.0,0.0,91,0.00,,,0.05,26,Wunderground v.1.15,2013-01-01 15:35:00,
2013-01-01 10:45:00,43.6,41.4,29.97,North,32767,-999.0,0.0,92,0.00,,,0.05,44,Wunderground v.1.15,2013-01-01 15:45:00,
2013-01-01 10:50:00,43.8,41.9,29.96,North,32767,-999.0,0.0,93,0.00,,,0.05,72,Wunderground v.1.15,2013-01-01 15:50:00,
2013-01-01 10:55:00,43.9,42.0,29.96,North,32767,-999.0,0.0,93,0.00,,,0.05,65,Wunderground v.1.15,2013-01-01 15:55:00,
2013-01-01 11:05:00,44.1,41.9,29.94,North,32767,-999.0,0.0,92,0.00,,,0.05,30,Wunderground v.1.15,2013-01-01 16:05:00,
2013-01-01 11:10:00,44.1,41.9,29.94,North,32767,-999.0,0.0,92,0.00,,,0.05,42,Wunderground v.1.15,2013-01-01 16:10:00,
2013-01-01 11:15:00,43.9,41.7,29.94,North,32767,-999.0,0.0,92,0.00,,,0.05,48,Wunderground v.1.15,2013-01-01 16:15:00,
2013-01-01 11:25:00,44.1,41.9,29.94,North,32767,-999.0,0.0,92,0.00,,,0.05,88,Wunderground v.1.15,2013-01-01 16:25:00,
2013-01-01 11:30:00,44.2,42.0,29.94,North,32767,-999.0,0.0,92,0.00,,,0.05,84,Wunderground v.1.15,2013-01-01 16:30:00,
2013-01-01 11:35:00,44.5,42.3,29.92,North,32767,-999.0,0.0,92,0.00,,,0.05,65,Wunderground v.1.15,2013-01-01 16:35:00,
2013-01-01 11:45:00,44.5,42.0,29.92,North,32767,-999.0,0.0,91,0.00,,,0.05,26,Wunderground v.1.15,2013-01-01 16:45:00,
2013-01-01 11:50:00,44.5,42.0,29.92,North,32767,-999.0,0.0,91,0.00,,,0.05,25,Wunderground v.1.15,2013-01-01 16:50:00,
2013-01-01 12:00:00,44.5,42.3,29.92,North,32767,-999.0,0.0,92,0.00,,,0.05,26,Wunderground v.1.15,2013-01-01 17:00:00,
2013-01-01 12:05:00,44.5,42.0,29.89,North,32767,-999.0,0.0,91,0.00,,,0.05,18,Wunderground v.1.15,2013-01-01 17:05:00,
2013-01-01 12:15:00,44.5,42.3,29.89,North,32767,-999.0,0.0,92,0.00,,,0.05,16,Wunderground v.1.15,2013-01-01 17:15:00,
2013-01-01 12:20:00,44.5,42.3,29.88,North,32767,-999.0,0.0,92,0.00,,,0.05,16,Wunderground v.1.15,2013-01-01 17:20:00,
2013-01-01 12:30:00,44.6,42.7,29.88,North,32767,-999.0,0.0,93,0.00,,,0.05,37,Wunderground v.1.15,2013-01-01 17:30:00,
2013-01-01 12:35:00,44.8,42.9,29.86,North,32767,-999.0,0.0,93,0.00,,,0.05,25,Wunderground v.1.15,2013-01-01 17:35:00,
2013-01-01 12:45:00,44.9,43.0,29.86,North,32767,-999.0,0.0,93,0.00,,,0.05,32,Wunderground v.1.15,2013-01-01 17:45:00,
2013-01-01 12:50:00,45.1,43.2,29.86,North,32767,-999.0,0.0,93,0.00,,,0.05,76,Wunderground v.1.15,2013-01-01 17:50:00,
2013-01-01 12:55:00,45.4,43.5,29.86,North,32767,-999.0,0.0,93,0.00,,,0.05,55,Wunderground v.1.15,2013-01-01 17:55:00,
2013-01-01 13:05:00,45.7,43.8,29.86,North,32767,-999.0,0.0,93,0.00,,,0.05,35,Wunderground v.1.15,2013-01-01 18:05:00,
2013-01-01 13:10:00,45.8,43.6,29.86,North,32767,-999.0,0.0,92,0.00,,,0.05,37,Wunderground v.1.15,2013-01-01 18:10:00,
2013-01-01 13:20:00,46.1,43.9,29.86,North,32767,-999.0,0.0,92,0.00,,,0.05,21,Wunderground v.1.15,2013-01-01 18:20:00,
2013-01-01 13:25:00,46.1,43.9,29.86,North,32767,-999.0,0.0,92,0.00,,,0.05,19,Wunderground v.1.15,2013-01-01 18:25:00,
2013-01-01 13:30:00,46.2,43.7,29.86,North,32767,-999.0,0.0,91,0.00,,,0.05,21,Wunderground v.1.15,2013-01-01 18:30:00,
2013-01-01 13:40:00,46.4,44.2,29.86,North,32767,-999.0,0.0,92,0.00,,,0.05,26,Wunderground v.1.15,2013-01-01 18:40:00,
2013-01-01 13:45:00,46.5,44.3,29.86,North,32767,-999.0,0.0,92,0.00,,,0.05,28,Wunderground v.1.15,2013-01-01 18:45:00,
2013-01-01 13:50:00,46.5,44.3,29.86,North,32767,-999.0,0.0,92,0.00,,,0.05,33,Wunderground v.1.15,2013-01-01 18:50:00,
2013-01-01 14:00:00,46.8,44.6,29.86,North,32767,-999.0,0.0,92,0.00,,,0.05,30,Wunderground v.1.15,2013-01-01 19:00:00,
2013-01-01 14:05:00,47.0,44.8,29.87,North,32767,-999.0,0.0,92,0.00,,,0.05,30,Wunderground v.1.15,2013-01-01 19:05:00,
2013-01-01 14:15:00,47.1,44.9,29.87,North,32767,-999.0,0.0,92,0.00,,,0.05,26,Wunderground v.1.15,2013-01-01 19:15:00,
2013-01-01 14:25:00,47.3,45.1,29.86,North,32767,-999.0,0.0,92,0.00,,,0.05,21,Wunderground v.1.15,2013-01-01 19:25:00,
2013-01-01 14:30:00,47.3,45.1,29.86,North,32767,-999.0,0.0,92,0.00,,,0.05,21,Wunderground v.1.15,2013-01-01 19:30:00,
2013-01-01 14:40:00,47.4,45.5,29.85,North,32767,-999.0,0.0,93,0.00,,,0.05,21,Wunderground v.1.15,2013-01-01 19:40:00,
2013-01-01 14:45:00,47.6,45.7,29.85,North,32767,-999.0,0.0,93,0.00,,,0.05,21,Wunderground v.1.15,2013-01-01 19:45:00,
2013-01-01 14:50:00,47.6,45.7,29.84,North,32767,-999.0,0.0,93,0.00,,,0.05,16,Wunderground v.1.15,2013-01-01 19:50:00,
2013-01-01 14:55:00,47.7,45.8,29.84,North,32767,-999.0,0.0,93,0.00,,,0.05,18,Wunderground v.1.15,2013-01-01 19:55:00,
2013-01-01 15:00:00,47.7,45.8,29.84,North,32767,-999.0,0.0,93,0.00,,,0.05,19,Wunderground v.1.15,2013-01-01 20:00:00,
2013-01-01 15:10:00,47.7,45.8,29.84,North,32767,-999.0,0.0,93,0.00,,,0.05,26,Wunderground v.1.15,2013-01-01 20:10:00,
2013-01-01 15:15:00,47.9,46.0,29.84,North,32767,-999.0,0.0,93,0.00,,,0.05,23,Wunderground v.1.15,2013-01-01 20:15:00,
2013-01-01 15:20:00,47.9,46.0,29.85,North,32767,-999.0,0.0,93,0.00,,,0.05,21,Wunderground v.1.15,2013-01-01 20:20:00,
2013-01-01 15:30:00,48.2,46.6,29.85,North,32767,-999.0,0.0,94,0.00,,,0.05,26,Wunderground v.1.15,2013-01-01 20:30:00,
2013-01-01 15:35:00,48.2,46.6,29.85,North,32767,-999.0,0.0,94,0.00,,,0.05,30,Wunderground v.1.15,2013-01-01 20:35:00,
2013-01-01 15:45:00,48.3,46.7,29.85,North,32767,-999.0,0.0,94,0.00,,,0.05,21,Wunderground v.1.15,2013-01-01 20:45:00,
2013-01-01 15:50:00,48.3,46.7,29.83,North,32767,-999.0,0.0,94,0.00,,,0.05,23,Wunderground v.1.15,2013-01-01 20:50:00,
2013-01-01 15:55:00,48.3,46.7,29.83,North,32767,-999.0,0.0,94,0.00,,,0.05,25,Wunderground v.1.15,2013-01-01 20:55:00,
2013-01-01 16:05:00,48.3,46.9,29.84,North,32767,-999.0,0.0,95,0.00,,,0.05,7,Wunderground v.1.15,2013-01-01 21:05:00,
2013-01-01 16:15:00,48.3,46.9,29.84,North,32767,-999.0,0.0,95,0.00,,,0.05,5,Wunderground v.1.15,2013-01-01 21:15:00,
2013-01-01 16:20:00,48.3,46.9,29.84,North,32767,-999.0,0.0,95,0.00,,,0.05,0,Wunderground v.1.15,2013-01-01 21:20:00,
2013-01-01 16:25:00,48.5,47.1,29.84,North,32767,-999.0,0.0,95,0.00,,,0.05,0,Wunderground v.1.15,2013-01-01 21:25:00,
2013-01-01 16:35:00,48.5,47.1,29.83,North,32767,-999.0,0.0,95,0.00,,,0.05,0,Wunderground v.1.15,2013-01-01 21:35:00,
2013-01-01 16:40:00,48.5,47.1,29.83,North,32767,-999.0,0.0,95,0.00,,,0.05,0,Wunderground v.1.15,2013-01-01 21:40:00,
2013-01-01 16:50:00,48.6,47.5,29.85,North,32767,-999.0,0.0,96,0.00,,,0.06,0,Wunderground v.1.15,2013-01-01 21:50:00,
2013-01-01 16:55:00,48.8,47.7,29.85,North,32767,-999.0,0.0,96,0.00,,,0.06,0,Wunderground v.1.15,2013-01-01 21:55:00,
2013-01-01 17:00:00,48.9,47.8,29.85,North,32767,-999.0,0.0,96,0.00,,,0.06,0,Wunderground v.1.15,2013-01-01 22:00:00,
2013-01-01 17:10:00,48.9,47.8,29.85,North,32767,-999.0,0.0,96,0.00,,,0.07,0,Wunderground v.1.15,2013-01-01 22:10:00,
2013-01-01 17:15:00,48.9,47.8,29.85,North,32767,-999.0,0.0,96,0.00,,,0.07,0,Wunderground v.1.15,2013-01-01 22:15:00,
2013-01-01 17:20:00,48.9,48.1,29.86,North,32767,-999.0,0.0,97,0.00,,,0.07,0,Wunderground v.1.15,2013-01-01 22:20:00,
2013-01-01 17:30:00,49.1,48.8,29.86,North,32767,-999.0,0.0,99,0.00,,,0.07,0,Wunderground v.1.15,2013-01-01 22:30:00,
2013-01-01 17:35:00,49.1,48.8,29.85,North,32767,-999.0,0.0,99,0.00,,,0.07,0,Wunderground v.1.15,2013-01-01 22:35:00,
2013-01-01 17:45:00,49.2,49.2,29.85,North,32767,-999.0,0.0,100,0.00,,,0.07,0,Wunderground v.1.15,2013-01-01 22:45:00,
2013-01-01 17:50:00,49.1,48.8,29.86,North,32767,-999.0,0.0,99,0.00,,,0.07,0,Wunderground v.1.15,2013-01-01 22:50:00,
2013-01-01 18:00:00,49.2,49.2,29.86,North,32767,-999.0,0.0,100,0.00,,,0.07,0,Wunderground v.1.15,2013-01-01 23:00:00,
2013-01-01 18:10:00,49.5,49.5,29.86,North,32767,-999.0,0.0,100,0.00,,,0.07,0,Wunderground v.1.15,2013-01-01 23:10:00,
2013-01-01 18:20:00,49.6,49.6,29.88,North,32767,-999.0,0.0,100,0.00,,,0.08,0,Wunderground v.1.15,2013-01-01 23:20:00,
2013-01-01 18:25:00,49.6,49.6,29.88,North,32767,-999.0,0.0,100,0.00,,,0.08,0,Wunderground v.1.15,2013-01-01 23:25:00,
2013-01-01 18:35:00,49.6,49.6,29.87,North,32767,-999.0,0.0,100,0.00,,,0.08,0,Wunderground v.1.15,2013-01-01 23:35:00,
2013-01-01 22:55:00,50.2,50.2,29.85,North,32767,-999.0,0.0,100,0.00,,,0.12,0,Wunderground v.1.15,2013-01-02 03:55:00,
2013-01-01 23:00:00,50.2,50.2,29.85,North,32767,-999.0,0.0,100,0.00,,,0.12,0,Wunderground v.1.15,2013-01-02 04:00:00,
2013-01-01 23:10:00,50.4,50.4,29.86,North,32767,-999.0,0.0,100,0.00,,,0.13,0,Wunderground v.1.15,2013-01-02 04:10:00,
2013-01-01 23:15:00,50.5,50.5,29.86,North,32767,-999.0,0.0,100,0.00,,,0.13,0,Wunderground v.1.15,2013-01-02 04:15:00,
2013-01-01 23:25:00,50.5,50.5,29.86,North,32767,-999.0,0.0,100,0.00,,,0.13,0,Wunderground v.1.15,2013-01-02 04:25:00,
2013-01-01 23:35:00,50.7,50.4,29.86,North,32767,-999.0,0.0,99,0.00,,,0.14,0,Wunderground v.1.15,2013-01-02 04:35:00,
2013-01-01 23:40:00,50.5,50.0,29.86,North,32767,-999.0,0.0,98,0.00,,,0.14,0,Wunderground v.1.15,2013-01-02 04:40:00,
2013-01-01 23:45:00,50.4,49.6,29.86,North,32767,-999.0,0.0,97,0.04,,,0.15,0,Wunderground v.1.15,2013-01-02 04:45:00,
2013-01-01 23:50:00,50.4,50.1,29.86,North,32767,-999.0,0.0,99,0.04,,,0.15,0,Wunderground v.1.15,2013-01-02 04:50:00,
2013-01-01 23:55:00,50.4,49.9,29.86,North,32767,-999.0,0.0,98,0.04,,,0.15,0,Wunderground v.1.15,2013-01-02 04:55:00,